Time;durP1;ratioP1;P1;durP2;ratioP2;P2;SDS_P1;SDS_P2;PMS_P1;PMS_P2;Temp;Humidity;BMP_temperature;BMP_pressure;BME280_temperature;BME280_humidity;BME280_pressure;Samples;Min_cycle;Max_cycle;Signal;HPM_P1;HPM_P2
2023/06/20 00:01:46;;;;;;;7.60;5.65;;;;;;;23.70;78.94;99954.91;4932568;29;20047;-71
2023/06/20 00:04:12;;;;;;;6.90;5.90;;;;;;;23.72;79.87;99950.19;4941985;28;20051;-71
2023/06/20 00:06:39;;;;;;;5.97;5.30;;;;;;;23.75;79.50;99957.97;4917729;29;20047;-70
2023/06/20 00:09:06;;;;;;;6.43;5.15;;;;;;;23.71;78.81;99946.63;4926729;29;20047;-71
2023/06/20 00:11:32;;;;;;;8.27;5.20;;;;;;;23.77;78.84;99955.91;4923501;29;20075;-70
2023/06/20 00:14:00;;;;;;;7.15;5.78;;;;;;;23.73;78.29;99957.28;4931267;28;20060;-71
2023/06/20 00:16:26;;;;;;;6.57;5.13;;;;;;;23.68;77.73;99955.06;4918910;28;20051;-70
2023/06/20 00:18:56;;;;;;;8.25;5.30;;;;;;;23.66;78.93;99954.41;4939598;28;20057;-70
2023/06/20 00:21:25;;;;;;;5.78;4.57;;;;;;;23.59;79.26;99957.94;4929638;28;20043;-70
2023/06/20 00:23:53;;;;;;;6.05;5.35;;;;;;;23.59;80.13;99979.56;4945881;28;20628;-72
2023/06/20 00:26:23;;;;;;;6.85;5.00;;;;;;;23.53;81.29;99988.31;4930223;29;20062;-72
2023/06/20 00:28:50;;;;;;;7.00;5.37;;;;;;;23.56;84.61;99990.72;4944941;28;20047;-73
2023/06/20 00:31:17;;;;;;;23.45;8.35;;;;;;;22.93;100.00;99996.50;4930551;29;20909;-73
2023/06/20 00:33:44;;;;;;;16.85;7.97;;;;;;;21.92;100.00;99998.72;4946536;28;20052;-73
2023/06/20 00:36:12;;;;;;;18.30;9.43;;;;;;;21.25;100.00;99997.31;4942900;28;20066;-73
2023/06/20 00:38:40;;;;;;;16.45;8.80;;;;;;;20.81;100.00;100012.34;4947997;28;20422;-73
2023/06/20 00:41:07;;;;;;;18.63;9.80;;;;;;;20.52;100.00;100007.06;4919563;28;20055;-72
2023/06/20 00:43:33;;;;;;;14.98;9.82;;;;;;;20.43;100.00;100023.22;4933483;29;20617;-72
2023/06/20 00:46:00;;;;;;;13.90;9.55;;;;;;;20.31;100.00;100012.56;4927814;29;20043;-73
2023/06/20 00:48:27;;;;;;;15.38;9.45;;;;;;;20.47;100.00;100016.53;4934080;29;20103;-73
2023/06/20 00:50:54;;;;;;;19.77;11.27;;;;;;;20.43;100.00;100002.56;4951646;28;20043;-72
2023/06/20 00:53:21;;;;;;;17.48;11.02;;;;;;;20.41;100.00;99990.25;4926919;29;21440;-73
2023/06/20 00:55:49;;;;;;;16.25;10.55;;;;;;;20.41;100.00;99992.94;4925982;29;20572;-73
2023/06/20 00:58:15;;;;;;;14.48;10.82;;;;;;;20.32;100.00;99975.78;4945950;28;20043;-72
2023/06/20 01:00:42;;;;;;;14.40;10.52;;;;;;;20.23;100.00;99972.13;4929017;28;20051;-73
2023/06/20 01:03:11;;;;;;;10.88;9.70;;;;;;;20.21;100.00;99984.84;4946026;29;20514;-73
2023/06/20 01:05:41;;;;;;;15.90;11.95;;;;;;;20.18;100.00;99970.84;4919117;29;20119;-73
2023/06/20 01:08:16;;;;;;;17.48;11.90;;;;;;;20.26;100.00;99985.28;4942397;28;20055;-72
2023/06/20 01:11:02;;;;;;;14.18;11.30;;;;;;;20.32;100.00;99965.03;4945257;28;20054;-72
2023/06/20 01:13:48;;;;;;;17.48;12.15;;;;;;;20.37;100.00;99957.41;4946833;28;21693;-74
2023/06/20 01:16:18;;;;;;;13.50;11.88;;;;;;;20.47;100.00;99960.06;4926114;28;20577;-74
2023/06/20 01:19:19;;;;;;;13.50;11.32;;;;;;;20.55;100.00;99968.28;4935520;29;20055;-73
2023/06/20 01:21:52;;;;;;;16.05;12.60;;;;;;;20.51;100.00;99946.19;4934865;29;20062;-73
2023/06/20 01:24:25;;;;;;;15.85;11.93;;;;;;;20.53;100.00;99938.81;4928657;29;20079;-73
2023/06/20 01:27:08;;;;;;;14.70;12.52;;;;;;;20.54;100.00;99932.44;4947582;28;20048;-74
2023/06/20 01:29:40;;;;;;;12.60;11.38;;;;;;;20.56;100.00;99933.16;4945742;29;20131;-73
2023/06/20 01:32:12;;;;;;;18.27;13.07;;;;;;;20.10;100.00;99861.38;4932871;29;20047;-73
2023/06/20 01:34:49;;;;;;;14.27;12.18;;;;;;;20.54;100.00;99940.53;4930597;29;20576;-73
2023/06/20 01:37:21;;;;;;;13.82;12.15;;;;;;;20.60;100.00;99944.47;4938385;29;21329;-73
2023/06/20 01:39:56;;;;;;;16.15;10.93;;;;;;;20.44;100.00;99942.41;4939944;28;20051;-73
2023/06/20 01:42:25;;;;;;;14.10;12.60;;;;;;;20.33;100.00;99938.00;4939477;29;20039;-75
2023/06/20 01:44:55;;;;;;;12.73;11.43;;;;;;;20.36;100.00;99954.84;4938633;29;20047;-75
2023/06/20 01:47:25;;;;;;;12.93;11.40;;;;;;;20.24;100.00;99927.28;4956744;29;20051;-72
2023/06/20 01:49:55;;;;;;;13.38;11.38;;;;;;;20.34;100.00;99949.59;4942328;28;20047;-73
2023/06/20 01:52:23;;;;;;;15.85;12.55;;;;;;;20.34;100.00;99944.22;4941545;28;20487;-73
2023/06/20 01:54:51;;;;;;;13.30;11.88;;;;;;;20.30;100.00;99945.53;4930881;29;20510;-72
2023/06/20 01:57:21;;;;;;;12.77;10.93;;;;;;;20.26;100.00;99954.88;4919361;28;20078;-71
2023/06/20 01:59:50;;;;;;;14.57;12.18;;;;;;;20.26;100.00;99958.41;4929315;29;20094;-73
2023/06/20 02:02:19;;;;;;;15.77;12.73;;;;;;;20.37;100.00;99965.47;4940733;28;20071;-72
2023/06/20 02:04:48;;;;;;;13.27;11.98;;;;;;;20.41;100.00;99966.91;4896700;29;20051;-71
2023/06/20 02:07:18;;;;;;;16.58;12.50;;;;;;;20.49;100.00;99967.00;4934525;29;20047;-72
2023/06/20 02:09:46;;;;;;;13.73;11.97;;;;;;;20.58;100.00;99976.91;4949775;28;20043;-72
2023/06/20 02:12:14;;;;;;;14.15;12.38;;;;;;;20.57;100.00;99974.34;4951201;28;20047;-72
2023/06/20 02:14:44;;;;;;;;;;;;;;;20.61;100.00;99990.06;4948844;28;20053;-73
2023/06/20 02:17:14;;;;;;;11.60;10.50;;;;;;;20.52;100.00;99974.78;4933370;29;20357;-72
2023/06/20 02:19:41;;;;;;;13.73;12.15;;;;;;;20.47;100.00;99976.19;4957886;28;20524;-72
2023/06/20 02:22:12;;;;;;;12.45;11.15;;;;;;;20.47;100.00;99978.88;4953578;28;20060;-73
2023/06/20 02:24:41;;;;;;;12.88;11.57;;;;;;;20.58;100.00;99995.72;4951208;28;20046;-74
2023/06/20 02:27:13;;;;;;;14.25;12.77;;;;;;;20.56;100.00;99984.28;4933996;28;20070;-74
2023/06/20 02:29:42;;;;;;;14.00;12.57;;;;;;;20.50;100.00;99982.16;4943656;28;20051;-72
2023/06/20 02:32:13;;;;;;;13.82;12.38;;;;;;;20.53;100.00;99995.31;4935687;29;20524;-74
2023/06/20 02:34:44;;;;;;;14.38;12.85;;;;;;;20.49;100.00;99993.06;4951164;28;20067;-72
2023/06/20 02:37:12;;;;;;;13.45;12.05;;;;;;;20.52;100.00;99995.44;4930111;29;20055;-73
2023/06/20 02:39:39;;;;;;;14.02;12.60;;;;;;;20.45;100.00;99989.81;4955247;28;20063;-72
2023/06/20 02:42:06;;;;;;;14.15;12.75;;;;;;;20.51;100.00;100005.38;4933983;29;20043;-72
2023/06/20 02:44:33;;;;;;;13.65;12.15;;;;;;;20.51;100.00;100004.50;4932000;29;20056;-72
2023/06/20 02:47:46;;;;;;;14.60;13.05;;;;;;;20.49;100.00;100010.03;4928838;29;20055;-74
2023/06/20 02:50:31;;;;;;;16.25;13.85;;;;;;;20.44;100.00;100014.16;4948221;28;20105;-73
2023/06/20 02:53:13;;;;;;;15.32;13.82;;;;;;;20.40;100.00;100021.66;4950920;28;20043;-73
2023/06/20 02:55:45;;;;;;;17.90;14.07;;;;;;;20.37;100.00;100046.16;4935173;29;20047;-75
2023/06/20 02:58:16;;;;;;;16.80;13.40;;;;;;;20.44;100.00;100060.75;4950232;28;20497;-72
2023/06/20 03:00:52;;;;;;;23.25;16.30;;;;;;;20.50;100.00;100054.78;4944324;28;20134;-72
2023/06/20 03:03:28;;;;;;;22.52;17.25;;;;;;;20.26;100.00;100039.06;4931326;28;20117;-71
2023/06/20 03:05:56;;;;;;;21.30;17.33;;;;;;;20.12;100.00;100052.09;4940849;28;20113;-72
2023/06/20 03:08:27;;;;;;;28.50;19.90;;;;;;;20.03;100.00;100039.47;4928845;28;20047;-72
2023/06/20 03:10:58;;;;;;;27.83;19.77;;;;;;;20.03;100.00;100031.41;4929775;28;20525;-72
2023/06/20 03:13:25;;;;;;;22.38;18.90;;;;;;;20.09;100.00;100020.09;4946268;28;20050;-71
2023/06/20 03:15:52;;;;;;;22.20;19.80;;;;;;;20.02;100.00;100005.53;4919950;28;20070;-71
2023/06/20 03:18:19;;;;;;;22.27;19.20;;;;;;;20.07;100.00;100012.19;4930904;28;20055;-72
2023/06/20 03:20:47;;;;;;;26.92;21.05;;;;;;;20.02;100.00;100003.69;4927860;29;20050;-71
2023/06/20 03:23:16;;;;;;;25.15;21.35;;;;;;;20.04;100.00;100006.22;4915097;28;20055;-71
2023/06/20 03:25:43;;;;;;;27.92;22.13;;;;;;;19.99;100.00;99995.09;4926615;28;20613;-72
2023/06/20 03:28:10;;;;;;;30.00;22.83;;;;;;;20.02;100.00;99995.63;4934741;28;20054;-72
2023/06/20 03:30:37;;;;;;;29.08;23.95;;;;;;;19.99;100.00;99987.03;4932503;28;20561;-72
2023/06/20 03:33:04;;;;;;;25.95;22.35;;;;;;;19.92;100.00;99982.19;4952244;28;20043;-72
2023/06/20 03:35:33;;;;;;;23.98;21.20;;;;;;;19.89;100.00;99974.41;4943293;28;20839;-72
2023/06/20 03:38:00;;;;;;;25.00;21.95;;;;;;;19.87;100.00;99981.75;4922687;28;20401;-72
2023/06/20 03:40:27;;;;;;;34.05;26.30;;;;;;;19.81;100.00;99979.66;4932928;28;20047;-71
2023/06/20 03:42:56;;;;;;;38.40;27.88;;;;;;;19.81;100.00;99976.97;4936046;28;20054;-71
2023/06/20 03:45:23;;;;;;;27.80;23.60;;;;;;;19.81;100.00;99985.03;4917823;28;20051;-71
2023/06/20 03:47:51;;;;;;;28.67;24.27;;;;;;;19.78;100.00;99990.69;4943392;28;20387;-72
2023/06/20 03:50:18;;;;;;;28.17;24.20;;;;;;;19.77;100.00;99994.34;4949160;28;20117;-72
2023/06/20 03:52:46;;;;;;;29.63;23.92;;;;;;;19.77;100.00;100009.63;4928850;29;20042;-72
2023/06/20 03:55:12;;;;;;;35.60;27.35;;;;;;;19.77;100.00;100020.38;4942867;28;20051;-71
2023/06/20 03:57:40;;;;;;;40.38;30.23;;;;;;;19.74;100.00;100020.66;4927585;28;20042;-71
2023/06/20 04:00:11;;;;;;;37.22;29.15;;;;;;;19.76;100.00;100024.03;4921218;28;20057;-73
2023/06/20 04:02:41;;;;;;;40.22;30.38;;;;;;;19.83;100.00;100031.41;4940072;28;20039;-72
2023/06/20 04:05:09;;;;;;;36.00;28.88;;;;;;;19.81;100.00;100011.06;4924135;28;20051;-70
2023/06/20 04:07:35;;;;;;;38.88;29.10;;;;;;;19.84;100.00;100005.38;4925220;28;20048;-71
2023/06/20 04:10:13;;;;;;;34.78;27.15;;;;;;;19.85;100.00;100012.44;4943010;28;20122;-71
2023/06/20 04:12:41;;;;;;;44.00;30.95;;;;;;;19.81;100.00;100003.00;4945746;28;20126;-71
2023/06/20 04:15:10;;;;;;;37.80;29.05;;;;;;;19.81;100.00;100006.53;4945251;28;20577;-73
2023/06/20 04:17:40;;;;;;;36.67;27.05;;;;;;;19.81;100.00;99998.47;4945253;28;20066;-71
2023/06/20 04:20:12;;;;;;;36.25;27.38;;;;;;;19.82;100.00;100002.84;4943817;28;20087;-72
2023/06/20 04:22:47;;;;;;;43.08;29.48;;;;;;;19.84;100.00;99998.16;4950071;28;20143;-72
2023/06/20 04:25:21;;;;;;;42.10;29.48;;;;;;;19.82;100.00;99991.25;4910804;29;20438;-72
2023/06/20 04:27:53;;;;;;;36.55;29.27;;;;;;;19.90;100.00;100010.19;4943875;28;20083;-71
2023/06/20 04:30:22;;;;;;;48.85;32.40;;;;;;;19.90;100.00;100008.34;4950346;28;20598;-71
2023/06/20 04:32:53;;;;;;;44.72;31.55;;;;;;;19.88;100.00;100006.78;4951675;28;20468;-71
2023/06/20 04:35:20;;;;;;;40.58;30.85;;;;;;;19.92;100.00;100005.53;4928034;28;20083;-71
2023/06/20 04:37:52;;;;;;;41.60;30.92;;;;;;;20.03;100.00;100010.75;4945605;28;20047;-71
2023/06/20 04:40:19;;;;;;;35.85;28.70;;;;;;;20.17;100.00;100006.78;4943828;28;20506;-72
2023/06/20 04:42:46;;;;;;;46.42;32.05;;;;;;;20.24;100.00;99994.50;4929649;28;20059;-71
2023/06/20 04:45:14;;;;;;;39.40;30.55;;;;;;;20.32;100.00;99997.28;4944941;28;20111;-71
2023/06/20 04:47:42;;;;;;;35.00;27.98;;;;;;;20.32;100.00;100005.34;4943279;28;20050;-71
2023/06/20 04:50:10;;;;;;;33.08;25.40;;;;;;;20.36;100.00;100006.81;4932760;28;20078;-73
2023/06/20 04:52:37;;;;;;;28.70;24.05;;;;;;;20.36;100.00;99997.84;4928041;28;20055;-72
2023/06/20 04:55:04;;;;;;;25.98;22.65;;;;;;;20.36;100.00;100004.13;4931769;28;20059;-72
2023/06/20 04:57:31;;;;;;;23.27;20.88;;;;;;;20.26;100.00;100000.56;4924341;29;20138;-73
2023/06/20 04:59:58;;;;;;;25.50;21.95;;;;;;;20.28;100.00;100009.34;4948998;28;20047;-73
2023/06/20 05:02:26;;;;;;;26.55;21.05;;;;;;;20.30;100.00;100004.69;4935681;29;20118;-72
2023/06/20 05:04:53;;;;;;;27.48;21.35;;;;;;;20.41;100.00;100001.84;4957618;28;20051;-76
2023/06/20 05:07:21;;;;;;;23.52;21.02;;;;;;;20.48;100.00;100002.09;4943601;28;20099;-73
2023/06/20 05:09:49;;;;;;;23.05;20.63;;;;;;;20.52;100.00;100001.69;4931769;28;20049;-72
2023/06/20 05:12:17;;;;;;;21.67;19.52;;;;;;;20.64;100.00;100021.19;4951644;28;20047;-73
2023/06/20 05:14:44;;;;;;;22.15;19.60;;;;;;;20.64;100.00;100022.03;4936388;28;20039;-73
2023/06/20 05:17:12;;;;;;;21.90;19.35;;;;;;;20.67;100.00;100026.28;4927244;29;20126;-74
2023/06/20 05:19:39;;;;;;;21.90;19.60;;;;;;;20.73;100.00;100011.41;4953624;28;20141;-73
2023/06/20 05:22:06;;;;;;;24.13;21.63;;;;;;;20.86;100.00;100030.78;4948440;28;20047;-73
2023/06/20 05:24:32;;;;;;;22.70;20.40;;;;;;;20.91;100.00;100041.94;4934355;29;20051;-74
2023/06/20 05:26:59;;;;;;;20.15;18.00;;;;;;;20.82;100.00;100035.59;4923466;29;20055;-73
2023/06/20 05:29:27;;;;;;;18.27;16.50;;;;;;;20.78;100.00;100017.22;4948809;28;20494;-74
2023/06/20 05:31:54;;;;;;;17.70;15.90;;;;;;;20.87;100.00;100030.63;4948973;28;20054;-75
2023/06/20 05:34:22;;;;;;;17.17;14.77;;;;;;;20.83;100.00;100020.28;4933147;29;20102;-74
2023/06/20 05:36:49;;;;;;;16.88;15.20;;;;;;;20.87;100.00;100024.41;4945001;28;20485;-74
2023/06/20 05:39:15;;;;;;;17.95;15.38;;;;;;;20.90;100.00;100022.25;4951038;28;20121;-74
2023/06/20 05:41:42;;;;;;;19.52;16.98;;;;;;;20.94;100.00;100026.34;4950808;28;20123;-74
2023/06/20 05:44:09;;;;;;;19.52;17.48;;;;;;;20.78;100.00;100034.19;4944172;28;20047;-74
2023/06/20 05:46:36;;;;;;;20.30;17.23;;;;;;;20.85;100.00;100045.22;4927213;28;20051;-73
2023/06/20 05:49:03;;;;;;;18.98;15.93;;;;;;;20.82;100.00;100013.22;4953504;28;20070;-73
2023/06/20 05:51:30;;;;;;;18.98;16.70;;;;;;;21.00;100.00;100039.22;4931101;28;20055;-74
2023/06/20 05:53:58;;;;;;;19.38;17.33;;;;;;;21.12;100.00;100039.03;4957278;28;20070;-73
2023/06/20 05:56:26;;;;;;;17.98;16.27;;;;;;;21.15;100.00;100046.81;4944440;28;20505;-76
2023/06/20 05:58:53;;;;;;;18.58;16.77;;;;;;;20.92;100.00;100035.56;4947682;28;20049;-74
2023/06/20 06:01:21;;;;;;;18.98;16.52;;;;;;;20.87;100.00;100048.63;4940774;28;20043;-76
2023/06/20 06:03:48;;;;;;;22.38;17.73;;;;;;;20.74;100.00;100040.88;4935068;28;20130;-75
2023/06/20 06:06:15;;;;;;;20.23;17.92;;;;;;;20.87;100.00;100041.38;4947622;28;20074;-79
2023/06/20 06:08:42;;;;;;;21.08;18.42;;;;;;;20.96;100.00;100043.19;4932347;29;20106;-73
2023/06/20 06:11:09;;;;;;;20.23;18.23;;;;;;;20.99;100.00;100034.81;4947640;28;20466;-73
2023/06/20 06:13:38;;;;;;;20.38;17.70;;;;;;;20.96;100.00;100028.88;4951491;28;20039;-75
2023/06/20 06:16:05;;;;;;;20.60;18.33;;;;;;;21.19;100.00;100049.09;4916615;29;20453;-82
2023/06/20 06:18:33;;;;;;;19.58;17.58;;;;;;;21.30;100.00;100045.34;4947900;28;20070;-77
2023/06/20 06:21:00;;;;;;;18.02;16.27;;;;;;;21.51;100.00;100043.28;4945863;28;20526;-79
2023/06/20 06:23:27;;;;;;;17.65;15.85;;;;;;;21.82;100.00;100042.94;4932221;28;20130;-73
2023/06/20 06:25:54;;;;;;;17.08;15.38;;;;;;;22.09;100.00;100018.63;4933062;29;20118;-77
2023/06/20 06:28:22;;;;;;;17.48;14.77;;;;;;;22.60;100.00;100039.47;4944115;28;20051;-80
2023/06/20 06:30:48;;;;;;;16.08;14.23;;;;;;;23.01;100.00;100037.03;4934734;28;20046;-74
2023/06/20 06:33:15;;;;;;;14.93;13.43;;;;;;;23.49;100.00;100027.47;4933252;29;20407;-75
2023/06/20 06:35:42;;;;;;;16.20;14.35;;;;;;;23.88;100.00;100039.44;4940769;28;20134;-75
2023/06/20 06:38:09;;;;;;;15.93;14.30;;;;;;;23.99;100.00;100041.81;4912791;28;20720;-78
2023/06/20 06:40:36;;;;;;;15.50;13.18;;;;;;;24.00;100.00;100046.22;4915289;29;20520;-75
2023/06/20 06:43:03;;;;;;;15.43;13.90;;;;;;;24.15;100.00;100038.28;4914613;29;20039;-77
2023/06/20 06:45:32;;;;;;;14.48;12.98;;;;;;;24.23;100.00;100040.19;4935780;28;20053;-75
2023/06/20 06:47:59;;;;;;;11.95;10.85;;;;;;;23.78;100.00;100044.97;4944406;28;20074;-75
2023/06/20 06:50:27;;;;;;;13.65;12.27;;;;;;;23.36;100.00;100044.13;4945920;28;20052;-75
2023/06/20 06:52:53;;;;;;;15.07;13.35;;;;;;;23.12;100.00;100058.38;4932129;29;20039;-76
2023/06/20 06:55:20;;;;;;;16.35;14.60;;;;;;;22.96;100.00;100058.28;4934665;29;20055;-75
2023/06/20 06:57:47;;;;;;;16.23;14.50;;;;;;;22.95;100.00;100053.91;4942150;28;20053;-74
2023/06/20 07:00:14;;;;;;;16.02;14.32;;;;;;;22.87;100.00;100060.09;4934099;28;20111;-74
2023/06/20 07:02:43;;;;;;;15.80;13.68;;;;;;;22.88;100.00;100060.94;4948464;28;20047;-74
2023/06/20 07:05:12;;;;;;;18.27;16.38;;;;;;;22.63;100.00;100066.13;4931022;28;20567;-74
2023/06/20 07:07:38;;;;;;;19.52;17.52;;;;;;;22.40;100.00;100059.53;4924709;28;20059;-74
2023/06/20 07:10:06;;;;;;;21.48;16.77;;;;;;;22.56;100.00;100056.09;4929433;29;20044;-75
2023/06/20 07:12:32;;;;;;;18.88;16.05;;;;;;;22.99;100.00;100045.28;4927857;28;20142;-75
2023/06/20 07:14:59;;;;;;;18.58;16.70;;;;;;;23.25;100.00;100039.88;4944685;28;20051;-75
2023/06/20 07:17:26;;;;;;;19.45;17.38;;;;;;;23.10;100.00;100057.69;4926313;29;20046;-73
2023/06/20 07:19:53;;;;;;;19.83;17.80;;;;;;;23.02;100.00;100063.88;4944664;28;20051;-75
2023/06/20 07:22:20;;;;;;;20.10;18.10;;;;;;;23.08;100.00;100059.72;4927249;29;20130;-74
2023/06/20 07:24:48;;;;;;;19.42;17.33;;;;;;;23.04;100.00;100058.31;4947305;28;20054;-74
2023/06/20 07:27:19;;;;;;;23.27;18.33;;;;;;;23.38;100.00;100048.38;4927695;28;20071;-74
2023/06/20 07:29:46;;;;;;;20.85;18.65;;;;;;;23.34;100.00;100055.09;4930380;28;20051;-74
2023/06/20 07:32:14;;;;;;;21.55;19.25;;;;;;;23.09;100.00;100053.31;4931751;29;20433;-74
2023/06/20 07:34:41;;;;;;;21.17;18.13;;;;;;;23.07;100.00;100052.63;4950376;29;20118;-73
2023/06/20 07:37:09;;;;;;;21.63;18.85;;;;;;;22.97;100.00;100054.59;4941913;28;20399;-73
2023/06/20 07:39:39;;;;;;;20.00;17.90;;;;;;;23.02;100.00;100039.59;4929776;28;20055;-72
2023/06/20 07:42:06;;;;;;;17.77;16.15;;;;;;;23.74;100.00;100051.75;4948183;28;20062;-73
2023/06/20 07:44:33;;;;;;;18.88;16.90;;;;;;;24.63;100.00;100059.13;4950417;28;20413;-74
2023/06/20 07:47:00;;;;;;;17.45;15.75;;;;;;;25.23;100.00;100053.28;4941062;28;20154;-73
2023/06/20 07:49:28;;;;;;;16.52;14.93;;;;;;;25.74;100.00;100048.34;4947936;28;20131;-76
2023/06/20 07:51:54;;;;;;;18.80;15.80;;;;;;;26.03;100.00;100037.66;4930788;28;20054;-73
2023/06/20 07:54:21;;;;;;;16.42;13.82;;;;;;;26.33;100.00;100037.78;4948631;28;20052;-73
2023/06/20 07:56:48;;;;;;;14.82;13.40;;;;;;;26.61;100.00;100024.47;4944438;28;20284;-73
2023/06/20 07:59:15;;;;;;;15.80;14.30;;;;;;;26.88;100.00;100034.75;4926324;28;20553;-73
2023/06/20 08:01:42;;;;;;;15.27;13.77;;;;;;;26.90;100.00;100027.25;4946352;28;20513;-72
2023/06/20 08:04:09;;;;;;;14.52;13.13;;;;;;;27.16;100.00;100037.69;4935581;29;20039;-74
2023/06/20 08:06:36;;;;;;;16.00;14.43;;;;;;;27.13;100.00;100032.63;4934817;28;20043;-76
2023/06/20 08:09:05;;;;;;;15.52;14.02;;;;;;;26.95;100.00;100007.69;4949393;28;20053;-73
2023/06/20 08:11:34;;;;;;;15.50;13.90;;;;;;;26.55;100.00;100012.50;4926829;29;20047;-73
2023/06/20 08:14:01;;;;;;;17.08;15.38;;;;;;;26.38;100.00;100021.81;4945332;28;20102;-73
2023/06/20 08:16:29;;;;;;;16.55;14.95;;;;;;;26.11;100.00;100031.34;4945513;28;20053;-75
2023/06/20 08:18:56;;;;;;;14.73;13.23;;;;;;;26.10;100.00;100021.50;4924782;28;20466;-73
2023/06/20 08:21:26;;;;;;;16.15;14.57;;;;;;;26.03;100.00;100028.66;4942464;28;20055;-74
2023/06/20 08:23:52;;;;;;;17.37;15.63;;;;;;;25.68;100.00;100032.78;4926127;28;20066;-74
2023/06/20 08:26:19;;;;;;;16.60;14.90;;;;;;;25.59;100.00;100026.53;4953728;28;20623;-72
2023/06/20 08:28:46;;;;;;;17.08;15.27;;;;;;;25.35;100.00;100030.19;4933110;28;20137;-76
2023/06/20 08:31:15;;;;;;;18.27;16.35;;;;;;;24.82;100.00;100029.00;4930188;29;20074;-71
2023/06/20 08:33:42;;;;;;;18.25;16.23;;;;;;;24.37;100.00;100028.69;4949311;28;20441;-72
2023/06/20 08:36:11;;;;;;;18.60;16.67;;;;;;;23.97;100.00;100030.31;4949685;28;20494;-72
2023/06/20 08:38:38;;;;;;;20.15;17.98;;;;;;;23.99;100.00;100031.00;4923860;28;20044;-72
2023/06/20 08:41:10;;;;;;;18.88;16.90;;;;;;;24.02;100.00;100022.56;4941288;28;20050;-74
2023/06/20 08:43:36;;;;;;;19.35;16.77;;;;;;;24.12;100.00;100025.09;4948778;28;20043;-73
2023/06/20 08:46:03;;;;;;;17.40;15.80;;;;;;;24.09;100.00;100012.75;4947360;28;20580;-72
2023/06/20 08:48:30;;;;;;;18.70;16.40;;;;;;;24.28;100.00;100024.28;4939749;28;20075;-72
2023/06/20 08:50:58;;;;;;;17.75;15.23;;;;;;;24.72;100.00;100030.16;4930520;28;20054;-73
2023/06/20 08:53:25;;;;;;;15.40;13.90;;;;;;;25.38;100.00;100020.88;4931170;28;20070;-73
2023/06/20 08:56:03;;;;;;;15.10;13.52;;;;;;;26.10;100.00;100021.50;4929871;29;20047;-74
2023/06/20 08:58:32;;;;;;;15.57;14.05;;;;;;;26.53;100.00;100014.56;4942308;28;20039;-72
2023/06/20 09:00:59;;;;;;;18.10;16.20;;;;;;;26.19;100.00;100012.25;4931135;28;20071;-72
2023/06/20 09:03:26;;;;;;;15.63;14.13;;;;;;;26.04;100.00;100024.94;4946889;28;20047;-73
2023/06/20 09:05:53;;;;;;;13.98;12.63;;;;;;;26.31;100.00;100020.84;4921985;29;20205;-74
2023/06/20 09:08:19;;;;;;;14.70;13.30;;;;;;;26.54;100.00;100010.81;4946021;28;20039;-72
2023/06/20 09:11:04;;;;;;;14.10;12.70;;;;;;;26.60;100.00;100020.94;4931088;28;20119;-72
2023/06/20 09:13:35;;;;;;;14.25;12.80;;;;;;;26.18;100.00;100016.00;4924929;28;20043;-73
2023/06/20 09:16:09;;;;;;;14.23;12.73;;;;;;;25.85;100.00;100015.38;4938360;28;20051;-72
2023/06/20 09:18:37;;;;;;;14.55;13.15;;;;;;;25.94;100.00;100013.47;4928057;29;20585;-71
2023/06/20 09:21:04;;;;;;;14.23;12.75;;;;;;;26.36;100.00;100018.44;4923492;28;20584;-70
2023/06/20 09:23:33;;;;;;;17.05;13.57;;;;;;;26.77;99.29;100011.56;4944499;28;20047;-72
2023/06/20 09:26:14;;;;;;;13.25;11.95;;;;;;;27.07;91.92;100014.38;4913251;28;20517;-72
2023/06/20 09:28:50;;;;;;;14.35;12.88;;;;;;;27.12;94.58;100012.75;4928558;28;20118;-73
2023/06/20 09:31:17;;;;;;;13.82;12.43;;;;;;;27.13;90.23;100014.44;4947017;28;20055;-71
2023/06/20 09:33:44;;;;;;;14.48;12.98;;;;;;;27.12;89.59;100011.91;4929288;28;20149;-74
2023/06/20 09:36:15;;;;;;;15.43;13.90;;;;;;;27.05;87.63;100013.72;4943958;28;21065;-71
2023/06/20 09:38:43;;;;;;;14.98;13.55;;;;;;;26.95;88.84;100022.13;4949840;28;20055;-72
2023/06/20 09:41:15;;;;;;;16.17;14.25;;;;;;;26.90;87.48;100017.25;4932874;29;20111;-70
2023/06/20 09:43:42;;;;;;;14.55;13.10;;;;;;;26.95;87.32;100015.84;4937137;28;20130;-72
2023/06/20 09:46:09;;;;;;;14.18;12.77;;;;;;;27.11;82.98;100002.91;4942900;28;20122;-73
2023/06/20 09:48:38;;;;;;;14.18;12.65;;;;;;;27.11;83.73;100005.63;4928930;28;20051;-72
2023/06/20 09:51:08;;;;;;;13.43;12.13;;;;;;;27.42;84.85;100010.84;4947580;28;20513;-72
2023/06/20 09:54:02;;;;;;;13.00;11.70;;;;;;;27.97;80.07;100004.00;4934761;29;20066;-71
2023/06/20 09:56:32;;;;;;;15.82;11.30;;;;;;;28.38;71.46;100006.91;4944253;28;20043;-72
2023/06/20 09:59:02;;;;;;;12.38;11.25;;;;;;;28.63;72.46;100000.00;4935018;28;20126;-72
2023/06/20 10:01:31;;;;;;;12.48;11.30;;;;;;;28.76;70.64;100007.44;4930490;29;20557;-72
2023/06/20 10:03:58;;;;;;;12.38;11.20;;;;;;;28.73;69.93;100002.38;4950037;28;20549;-72
2023/06/20 10:06:25;;;;;;;11.07;9.43;;;;;;;28.94;65.02;100005.06;4933611;29;20047;-71
2023/06/20 10:08:53;;;;;;;13.00;9.25;;;;;;;29.31;62.83;99997.50;4938445;28;20065;-72
2023/06/20 10:11:21;;;;;;;16.58;10.18;;;;;;;29.69;60.73;99995.16;4949714;28;20142;-72
2023/06/20 10:13:49;;;;;;;11.02;9.93;;;;;;;29.51;59.73;99993.00;4932903;29;20044;-70
2023/06/20 10:16:18;;;;;;;11.50;10.38;;;;;;;29.21;60.73;99995.16;4944552;28;20068;-72
2023/06/20 10:18:47;;;;;;;12.55;11.45;;;;;;;29.16;61.00;99999.50;4951930;28;20058;-72
2023/06/20 10:21:15;;;;;;;11.77;10.67;;;;;;;29.17;61.51;99993.88;4950376;28;20079;-72
2023/06/20 10:23:44;;;;;;;11.20;10.00;;;;;;;29.40;63.18;100000.94;4933005;29;20062;-72
2023/06/20 10:26:12;;;;;;;10.48;9.50;;;;;;;29.68;58.47;99990.75;4946032;28;20511;-72
2023/06/20 10:28:41;;;;;;;11.63;10.52;;;;;;;29.93;57.24;100000.03;4946417;28;20050;-71
2023/06/20 10:31:08;;;;;;;10.50;9.57;;;;;;;30.03;55.45;99996.97;4946905;28;20041;-72
2023/06/20 10:33:37;;;;;;;10.60;9.60;;;;;;;30.24;56.63;100004.94;4951999;28;20134;-72
2023/06/20 10:36:10;;;;;;;10.68;9.73;;;;;;;30.52;54.20;100003.94;4943969;28;20141;-72
2023/06/20 10:38:59;;;;;;;10.90;9.75;;;;;;;30.49;53.35;99999.72;4918076;29;20126;-72
2023/06/20 10:41:28;;;;;;;11.40;9.70;;;;;;;30.56;53.58;100003.31;4932299;29;20056;-72
2023/06/20 10:44:02;;;;;;;11.70;10.60;;;;;;;30.02;52.17;100006.19;4927168;28;20425;-72
2023/06/20 10:46:41;;;;;;;11.57;10.55;;;;;;;29.75;53.62;99998.97;4928982;28;20055;-72
2023/06/20 10:49:09;;;;;;;11.65;10.63;;;;;;;29.23;56.90;99997.69;4947536;28;20101;-71
2023/06/20 10:51:43;;;;;;;12.13;11.00;;;;;;;29.06;58.15;99993.59;4949128;28;20050;-70
2023/06/20 10:54:14;;;;;;;13.07;11.05;;;;;;;29.04;59.92;100001.97;4945348;28;20473;-71
2023/06/20 10:56:43;;;;;;;12.00;10.82;;;;;;;29.04;61.17;99999.25;4927537;29;20650;-70
2023/06/20 10:59:15;;;;;;;12.15;11.02;;;;;;;29.48;58.02;100003.47;4951545;28;20043;-70
2023/06/20 11:01:43;;;;;;;11.32;10.32;;;;;;;29.90;55.09;99992.28;4950885;28;20056;-71
2023/06/20 11:04:12;;;;;;;11.70;10.50;;;;;;;30.21;53.75;99977.22;4917739;28;20799;-71
2023/06/20 11:06:44;;;;;;;11.48;10.48;;;;;;;30.00;52.86;99986.44;4941321;28;20102;-72
2023/06/20 11:09:18;;;;;;;11.30;10.30;;;;;;;29.44;55.54;99994.00;4931683;29;20470;-73
2023/06/20 11:11:48;;;;;;;11.80;10.35;;;;;;;29.52;54.39;99983.78;4949259;28;20043;-73
2023/06/20 11:14:19;;;;;;;10.82;9.45;;;;;;;29.72;53.65;99972.09;4951629;28;20050;-76
2023/06/20 11:16:48;;;;;;;11.50;10.30;;;;;;;29.91;54.16;99977.56;4928175;29;20043;-73